Time;durP1;ratioP1;P1;durP2;ratioP2;P2;SDS_P1;SDS_P2;PMS_P1;PMS_P2;Temp;Humidity;BMP_temperature;BMP_pressure;BME280_temperature;BME280_humidity;BME280_pressure;Samples;Min_cycle;Max_cycle;Signal;HPM_P1;HPM_P2
2022/12/24 00:01:38;;;;;;;121.77;55.60;;;;;;;3.65;100.00;99280.41;5052029;28;20236;-62
2022/12/24 00:04:05;;;;;;;111.57;54.17;;;;;;;3.44;100.00;99275.38;5052301;28;20196;-62
2022/12/24 00:06:32;;;;;;;105.63;53.83;;;;;;;3.32;100.00;99271.13;5052115;28;20673;-55
2022/12/24 00:08:59;;;;;;;109.90;54.00;;;;;;;3.31;100.00;99282.25;5052208;28;20224;-55
2022/12/24 00:11:26;;;;;;;109.00;50.03;;;;;;;3.18;100.00;99280.56;5051962;28;20630;-55
2022/12/24 00:13:53;;;;;;;95.83;49.50;;;;;;;3.00;100.00;99288.31;5051742;28;20201;-55
2022/12/24 00:16:21;;;;;;;95.90;48.60;;;;;;;3.01;100.00;99284.91;5051729;28;20237;-55
2022/12/24 00:18:48;;;;;;;100.80;48.53;;;;;;;2.83;100.00;99281.50;5051560;28;20193;-55
2022/12/24 00:21:15;;;;;;;93.20;47.63;;;;;;;2.86;100.00;99278.94;5051931;28;20192;-62
2022/12/24 00:23:43;;;;;;;95.40;45.80;;;;;;;2.85;100.00;99273.81;5051656;28;20196;-62
2022/12/24 00:26:10;;;;;;;94.20;47.00;;;;;;;2.78;100.00;99285.81;5051864;28;20201;-62
2022/12/24 00:28:37;;;;;;;79.33;43.87;;;;;;;2.80;100.00;99271.28;5051398;28;20227;-62
2022/12/24 00:31:08;;;;;;;87.17;45.13;;;;;;;2.90;100.00;99279.81;5050853;28;20677;-56
2022/12/24 00:33:36;;;;;;;92.83;45.80;;;;;;;2.89;100.00;99280.66;5051750;28;20279;-62
2022/12/24 00:36:04;;;;;;;88.50;44.20;;;;;;;2.79;100.00;99278.97;5051724;28;20207;-62
2022/12/24 00:38:31;;;;;;;89.50;45.17;;;;;;;2.88;100.00;99287.50;5051806;28;20258;-62
2022/12/24 00:41:00;;;;;;;77.80;42.10;;;;;;;2.88;100.00;99287.50;5051390;28;20201;-54
2022/12/24 00:43:27;;;;;;;88.43;42.67;;;;;;;2.77;100.00;99281.53;5051629;28;20679;-55
2022/12/24 00:45:54;;;;;;;84.80;42.57;;;;;;;2.80;100.00;99276.41;5051349;28;20203;-55
2022/12/24 00:48:22;;;;;;;89.00;42.73;;;;;;;2.83;100.00;99276.38;5051102;28;20745;-54
2022/12/24 00:50:50;;;;;;;77.37;40.90;;;;;;;2.85;100.00;99279.78;5050990;28;20369;-53
2022/12/24 00:53:19;;;;;;;77.93;41.40;;;;;;;2.77;100.00;99265.28;5051152;28;20204;-54
2022/12/24 00:55:46;;;;;;;85.37;40.40;;;;;;;2.71;100.00;99278.94;5050895;28;20892;-53
2022/12/24 00:58:13;;;;;;;87.10;41.73;;;;;;;2.46;100.00;99273.03;5050773;28;20196;-53
2022/12/24 01:00:39;;;;;;;76.20;40.17;;;;;;;2.65;100.00;99284.09;5050874;28;20206;-61
2022/12/24 01:03:06;;;;;;;85.63;42.13;;;;;;;2.69;100.00;99277.28;5051019;28;20207;-62
2022/12/24 01:05:33;;;;;;;80.10;41.23;;;;;;;2.66;100.00;99273.00;5050844;28;20199;-62
2022/12/24 01:08:02;;;;;;;80.60;41.27;;;;;;;2.55;100.00;99265.31;5050900;28;20206;-61
2022/12/24 01:10:28;;;;;;;75.17;40.27;;;;;;;2.63;100.00;99264.44;5050799;28;20342;-62
2022/12/24 01:12:55;;;;;;;80.77;40.87;;;;;;;2.67;100.00;99273.84;5050576;28;20196;-61
2022/12/24 01:15:22;;;;;;;77.97;39.23;;;;;;;2.72;100.00;99265.28;5050696;28;20204;-62
2022/12/24 01:17:49;;;;;;;72.67;39.43;;;;;;;2.74;100.00;99261.03;5050391;28;20287;-62
2022/12/24 01:20:17;;;;;;;77.97;41.10;;;;;;;2.59;100.00;99260.22;5050688;28;20196;-62
2022/12/24 01:22:44;;;;;;;72.77;40.83;;;;;;;2.60;100.00;99251.66;5050281;28;20200;-61
2022/12/24 01:25:12;;;;;;;79.67;39.40;;;;;;;2.65;100.00;99247.38;5050518;28;20208;-62
2022/12/24 01:27:39;;;;;;;78.87;38.83;;;;;;;2.55;100.00;99249.94;5050117;28;20203;-55
2022/12/24 01:30:09;;;;;;;80.57;40.53;;;;;;;2.62;100.00;99249.94;5050118;28;20223;-55
2022/12/24 01:32:36;;;;;;;69.30;37.53;;;;;;;2.70;100.00;99250.78;5050370;28;20215;-62
2022/12/24 01:35:03;;;;;;;72.67;37.43;;;;;;;2.63;100.00;99255.06;5050180;28;20204;-62
2022/12/24 01:37:30;;;;;;;70.47;36.63;;;;;;;2.70;100.00;99249.09;5050285;28;20204;-62
2022/12/24 01:43:22;;;;;;;67.37;36.13;;;;;;;2.61;100.00;99243.94;5050095;28;20228;-62
2022/12/24 01:45:51;;;;;;;67.37;34.23;;;;;;;2.63;100.00;99246.50;5059772;28;20203;-62
2022/12/24 01:48:25;;;;;;;66.77;35.47;;;;;;;2.70;100.00;99254.22;5069901;28;20197;-55
2022/12/24 01:51:04;;;;;;;65.93;35.67;;;;;;;2.62;100.00;99249.94;5069746;28;20285;-55
2022/12/24 01:53:34;;;;;;;65.20;33.57;;;;;;;2.62;100.00;99244.81;5069644;28;20210;-55
2022/12/24 01:56:03;;;;;;;60.80;34.80;;;;;;;2.60;100.00;99252.50;5070207;28;20204;-62
2022/12/24 01:58:35;;;;;;;63.63;35.33;;;;;;;2.44;100.00;99248.25;5069967;28;20195;-54
2022/12/24 02:01:02;;;;;;;63.63;34.83;;;;;;;2.48;100.00;99242.28;5070121;28;20664;-54
2022/12/24 02:03:29;;;;;;;67.70;35.80;;;;;;;2.58;100.00;99258.50;5069878;28;20200;-62
2022/12/24 02:05:58;;;;;;;62.67;35.40;;;;;;;2.63;100.00;99241.41;5069722;28;20203;-62
2022/12/24 02:08:38;;;;;;;69.17;35.77;;;;;;;2.65;100.00;99245.66;5069669;28;20204;-62
2022/12/24 02:11:10;;;;;;;77.07;37.37;;;;;;;2.62;100.00;99242.25;5069862;28;20268;-61
2022/12/24 02:13:38;;;;;;;74.77;38.23;;;;;;;2.50;100.00;99245.69;5069779;28;20599;-62
2022/12/24 02:16:16;;;;;;;71.13;36.60;;;;;;;2.63;100.00;99241.41;5069610;28;20228;-61
2022/12/24 02:18:51;;;;;;;74.73;37.43;;;;;;;2.65;100.00;99240.53;5069922;28;20686;-62
2022/12/24 02:21:48;;;;;;;78.00;38.33;;;;;;;2.66;100.00;99232.00;5069568;28;20202;-61
2022/12/24 02:24:51;;;;;;;67.87;37.07;;;;;;;2.65;100.00;99237.13;5069575;28;20208;-54
2022/12/24 02:27:25;;;;;;;73.93;37.93;;;;;;;2.48;100.00;99225.19;5069339;28;20666;-55
2022/12/24 02:30:14;;;;;;;69.93;37.00;;;;;;;2.50;100.00;99245.69;5069474;28;20667;-55
2022/12/24 02:33:02;;;;;;;68.87;36.77;;;;;;;2.58;100.00;99238.84;5069436;28;20202;-54
2022/12/24 02:35:37;;;;;;;68.20;37.57;;;;;;;2.57;100.00;99242.28;5064147;28;20206;-54
2022/12/24 02:38:11;;;;;;;74.77;38.73;;;;;;;2.52;100.00;99249.09;5069505;28;20206;-54
2022/12/24 02:40:41;;;;;;;79.70;37.67;;;;;;;2.54;100.00;99248.25;5069087;28;20608;-54
2022/12/24 02:43:13;;;;;;;77.87;38.47;;;;;;;2.53;100.00;99250.81;5068952;28;20596;-61
2022/12/24 02:45:46;;;;;;;84.77;39.27;;;;;;;2.47;100.00;99245.69;5069326;28;20194;-54
2022/12/24 02:48:15;;;;;;;67.93;37.33;;;;;;;2.52;100.00;99255.06;5069372;28;20234;-62
2022/12/24 02:50:55;;;;;;;73.83;37.70;;;;;;;2.42;100.00;99244.84;5069090;28;20695;-61
2022/12/24 02:53:22;;;;;;;72.73;37.87;;;;;;;2.31;100.00;99228.63;5070562;28;20190;-62
2022/12/24 02:55:59;;;;;;;74.40;38.97;;;;;;;2.48;100.00;99266.16;5073398;28;20258;-61
2022/12/24 02:58:36;;;;;;;73.90;38.07;;;;;;;2.32;100.00;99269.59;5073482;28;20560;-61
2022/12/24 03:01:16;;;;;;;71.10;38.70;;;;;;;2.37;100.00;99260.19;5073215;28;20197;-62
2022/12/24 03:03:57;;;;;;;72.97;38.07;;;;;;;2.22;100.00;99262.75;5073293;28;20205;-61
2022/12/24 03:06:34;;;;;;;69.87;37.50;;;;;;;2.22;100.00;99252.53;5073205;28;20209;-62
2022/12/24 03:09:08;;;;;;;76.97;37.30;;;;;;;2.20;100.00;99251.66;5072986;28;20198;-62
2022/12/24 03:11:39;;;;;;;74.50;37.97;;;;;;;2.14;100.00;99254.25;5073146;28;20209;-55
2022/12/24 03:14:06;;;;;;;71.93;37.87;;;;;;;2.27;100.00;99260.19;5072975;28;20198;-55
2022/12/24 03:16:34;;;;;;;79.17;39.93;;;;;;;2.31;100.00;99256.78;5072728;28;20266;-54
2022/12/24 03:19:01;;;;;;;72.30;38.80;;;;;;;2.21;100.00;99247.41;5072866;28;20200;-55
2022/12/24 03:21:33;;;;;;;81.17;39.13;;;;;;;2.12;100.00;99238.03;5072842;28;20210;-62
2022/12/24 03:24:00;;;;;;;68.10;37.97;;;;;;;2.11;100.00;99233.75;5073105;28;20200;-55
2022/12/24 03:26:29;;;;;;;76.90;39.13;;;;;;;2.17;100.00;99226.91;5072703;28;20209;-55
2022/12/24 03:28:56;;;;;;;66.93;37.37;;;;;;;2.13;100.00;99238.03;5072689;28;20693;-54
2022/12/24 03:31:24;;;;;;;71.03;39.50;;;;;;;2.01;100.00;99230.34;5072751;28;20207;-55
2022/12/24 03:33:52;;;;;;;72.40;39.07;;;;;;;2.16;100.00;99230.31;5072521;28;20585;-62
2022/12/24 03:36:19;;;;;;;75.93;38.87;;;;;;;2.22;100.00;99234.59;5072525;28;20216;-61
2022/12/24 03:38:46;;;;;;;71.53;38.60;;;;;;;2.19;100.00;99230.31;5072600;28;20199;-61
2022/12/24 03:41:13;;;;;;;73.17;38.27;;;;;;;2.16;100.00;99235.44;5072449;28;20206;-62
2022/12/24 03:43:40;;;;;;;76.27;37.83;;;;;;;2.05;100.00;99233.72;5072569;28;20294;-61
2022/12/24 03:46:07;;;;;;;78.90;40.00;;;;;;;1.89;100.00;99240.56;5072397;28;20201;-61
2022/12/24 03:48:35;;;;;;;85.37;42.30;;;;;;;2.00;100.00;99241.41;5072542;28;20200;-61
2022/12/24 03:51:04;;;;;;;82.07;41.63;;;;;;;2.06;100.00;99235.44;5072656;28;20315;-61
2022/12/24 03:53:31;;;;;;;87.83;42.83;;;;;;;2.00;100.00;99232.88;5073099;28;20208;-61
2022/12/24 03:55:58;;;;;;;78.93;41.90;;;;;;;2.01;100.00;99225.22;5073266;28;20257;-61
2022/12/24 03:58:26;;;;;;;75.87;39.43;;;;;;;2.01;100.00;99220.09;5072939;28;20222;-60
2022/12/24 04:00:53;;;;;;;77.37;40.33;;;;;;;2.00;100.00;99228.63;5072474;28;20194;-61
2022/12/24 04:03:20;;;;;;;85.07;42.17;;;;;;;2.06;100.00;99231.16;5072425;28;20222;-61
2022/12/24 04:05:47;;;;;;;81.73;40.77;;;;;;;2.07;100.00;99234.59;5071177;28;20252;-62
2022/12/24 04:08:15;;;;;;;84.80;41.10;;;;;;;2.09;100.00;99238.00;5072649;28;20199;-62
2022/12/24 04:10:42;;;;;;;76.63;40.97;;;;;;;2.12;100.00;99228.63;5072408;28;20224;-61
2022/12/24 04:13:09;;;;;;;77.73;41.20;;;;;;;2.25;100.00;99236.31;5072607;28;20600;-61
2022/12/24 04:15:36;;;;;;;78.70;40.73;;;;;;;2.26;100.00;99235.47;5072848;28;20203;-60
2022/12/24 04:18:03;;;;;;;77.60;39.47;;;;;;;2.19;100.00;99237.16;5072253;28;20200;-61
2022/12/24 04:20:30;;;;;;;72.57;39.03;;;;;;;2.21;100.00;99232.91;5072057;28;20213;-61
2022/12/24 04:22:56;;;;;;;81.43;41.93;;;;;;;2.18;100.00;99228.63;5071699;28;20226;-55
2022/12/24 04:25:25;;;;;;;79.87;39.67;;;;;;;2.19;100.00;99234.59;5071856;28;20207;-62
2022/12/24 04:27:52;;;;;;;83.00;40.07;;;;;;;2.07;100.00;99232.88;5071927;28;20195;-61
2022/12/24 04:30:19;;;;;;;79.30;39.90;;;;;;;2.21;100.00;99238.00;5071639;28;20611;-61
2022/12/24 04:32:46;;;;;;;71.97;38.97;;;;;;;2.16;100.00;99234.59;5071705;28;20199;-62
2022/12/24 04:35:12;;;;;;;71.30;39.73;;;;;;;1.99;100.00;99220.94;5071661;28;20593;-62
2022/12/24 04:37:39;;;;;;;78.30;40.60;;;;;;;2.17;100.00;99236.28;5071471;28;20199;-62
2022/12/24 04:40:07;;;;;;;71.07;39.17;;;;;;;2.11;100.00;99239.72;5071530;28;20205;-62
2022/12/24 04:42:36;;;;;;;76.23;40.47;;;;;;;2.07;100.00;99240.56;5071488;28;20276;-62
2022/12/24 04:45:03;;;;;;;82.00;42.70;;;;;;;2.02;100.00;99247.41;5071166;28;20236;-62
2022/12/24 04:47:30;;;;;;;75.27;39.37;;;;;;;2.10;100.00;99245.69;5052380;28;20206;-62
2022/12/24 04:49:56;;;;;;;75.77;39.93;;;;;;;2.10;100.00;99255.94;5051764;28;20235;-60
2022/12/24 04:52:23;;;;;;;75.57;41.30;;;;;;;1.99;100.00;99255.06;5052542;28;20643;-62
2022/12/24 04:54:50;;;;;;;78.00;42.83;;;;;;;1.94;100.00;99249.06;5051452;28;20208;-54
2022/12/24 04:57:17;;;;;;;78.67;41.67;;;;;;;2.03;100.00;99238.84;5051198;28;20205;-55
2022/12/24 04:59:45;;;;;;;75.97;40.33;;;;;;;1.98;100.00;99242.25;5051288;28;20206;-54
2022/12/24 05:02:12;;;;;;;73.87;41.43;;;;;;;2.00;100.00;99249.09;5050884;28;20206;-54
2022/12/24 05:04:39;;;;;;;78.30;43.20;;;;;;;2.02;100.00;99244.84;5050804;28;20207;-55
2022/12/24 05:07:06;;;;;;;77.43;39.63;;;;;;;2.09;100.00;99248.25;5050796;28;20201;-54
2022/12/24 05:09:33;;;;;;;71.93;38.80;;;;;;;2.19;100.00;99253.38;5050744;28;20196;-54
2022/12/24 05:12:00;;;;;;;72.23;38.10;;;;;;;2.09;100.00;99249.09;5050693;28;20229;-60
2022/12/24 05:14:27;;;;;;;67.63;36.17;;;;;;;2.06;100.00;99254.22;5051921;28;20226;-61
2022/12/24 05:16:55;;;;;;;65.17;35.80;;;;;;;1.97;100.00;99249.09;5050050;28;20251;-54
2022/12/24 05:19:22;;;;;;;72.13;37.93;;;;;;;2.02;100.00;99252.53;5050593;28;20203;-56
2022/12/24 05:26:20;;;;;;;68.53;35.93;;;;;;;2.09;100.00;99253.38;5049981;28;20218;-55
2022/12/24 05:27:20;;;;;;;55.33;31.50;;;;;;;2.18;100.00;99249.09;5029319;28;20197;-56
2022/12/24 05:29:47;;;;;;;55.97;31.50;;;;;;;2.18;100.00;99251.66;5050411;28;20286;-56
2022/12/24 05:32:15;;;;;;;54.57;32.70;;;;;;;2.07;100.00;99257.63;5050299;28;20207;-55
2022/12/24 05:34:42;;;;;;;74.37;38.03;;;;;;;2.15;100.00;99254.22;5050401;28;20706;-62
2022/12/24 05:37:09;;;;;;;69.53;35.23;;;;;;;2.26;100.00;99258.50;5036680;28;20624;-61
2022/12/24 05:39:36;;;;;;;71.80;36.63;;;;;;;2.16;100.00;99253.34;5029239;28;20223;-61
2022/12/24 05:42:03;;;;;;;69.63;37.40;;;;;;;2.15;100.00;99264.44;5029598;28;20225;-61
2022/12/24 05:44:30;;;;;;;74.07;35.47;;;;;;;2.26;100.00;99261.91;5030169;28;20737;-61
2022/12/24 05:46:57;;;;;;;67.30;37.73;;;;;;;2.19;100.00;99245.69;5029556;28;20233;-59
2022/12/24 05:49:25;;;;;;;66.90;35.73;;;;;;;2.20;100.00;99259.34;5029809;28;20610;-59
2022/12/24 05:51:52;;;;;;;78.13;38.80;;;;;;;2.21;100.00;99260.19;5029434;28;20716;-59
2022/12/24 05:54:19;;;;;;;79.37;38.20;;;;;;;2.28;100.00;99252.50;5028065;28;20636;-59
2022/12/24 05:56:46;;;;;;;79.60;39.47;;;;;;;2.39;100.00;99263.59;5028451;28;20228;-61
2022/12/24 05:59:13;;;;;;;74.87;39.50;;;;;;;2.48;100.00;99268.72;5062988;28;20237;-55
2022/12/24 06:01:44;;;;;;;83.67;37.80;;;;;;;2.55;100.00;99279.84;5069065;28;20246;-55
2022/12/24 06:04:11;;;;;;;73.00;38.07;;;;;;;2.52;100.00;99274.72;5068936;28;20219;-55
2022/12/24 06:06:39;;;;;;;74.63;38.40;;;;;;;2.55;100.00;99274.72;5069081;28;20220;-60
2022/12/24 06:09:06;;;;;;;70.63;38.73;;;;;;;2.40;100.00;99283.25;5068707;28;20323;-60
2022/12/24 06:11:33;;;;;;;68.57;37.30;;;;;;;2.41;100.00;99287.53;5068676;28;20596;-60
2022/12/24 06:14:00;;;;;;;73.47;39.77;;;;;;;2.46;100.00;99279.84;5069318;28;20207;-60
2022/12/24 06:16:27;;;;;;;76.80;41.03;;;;;;;2.51;100.00;99285.81;5068860;28;20235;-61
2022/12/24 06:18:54;;;;;;;79.77;41.60;;;;;;;2.45;100.00;99283.25;5069493;28;20562;-61
2022/12/24 06:21:21;;;;;;;85.57;41.30;;;;;;;2.35;100.00;99259.34;5069138;28;20580;-55
2022/12/24 06:23:49;;;;;;;82.30;41.77;;;;;;;2.44;100.00;99266.19;5068139;28;20196;-53
2022/12/24 06:26:18;;;;;;;82.43;41.70;;;;;;;2.58;100.00;99292.66;5069184;28;20195;-55
2022/12/24 06:28:46;;;;;;;81.47;41.63;;;;;;;2.51;100.00;99273.00;5068473;28;20241;-54
2022/12/24 06:31:15;;;;;;;86.03;44.50;;;;;;;2.68;100.00;99296.06;5069184;28;20330;-55
2022/12/24 06:33:43;;;;;;;86.00;43.93;;;;;;;2.61;100.00;99261.88;5069250;28;20209;-54
2022/12/24 06:36:14;;;;;;;101.60;47.23;;;;;;;2.83;100.00;99286.63;5069352;28;20299;-61
2022/12/24 06:38:41;;;;;;;91.20;46.10;;;;;;;2.89;100.00;99289.19;5069298;28;20202;-61
2022/12/24 06:41:10;;;;;;;106.33;51.67;;;;;;;2.98;100.00;99295.16;5070172;28;20283;-61
2022/12/24 06:43:37;;;;;;;110.00;52.57;;;;;;;3.01;100.00;99310.53;5069282;28;20199;-61
2022/12/24 06:46:04;;;;;;;123.10;54.33;;;;;;;3.04;100.00;99298.59;5069628;28;20777;-61
2022/12/24 06:48:31;;;;;;;120.80;56.47;;;;;;;3.19;100.00;99300.22;5069205;28;20226;-61
2022/12/24 06:50:58;;;;;;;130.30;58.73;;;;;;;3.26;100.00;99296.81;5068805;28;20338;-61
2022/12/24 06:53:25;;;;;;;123.60;60.20;;;;;;;3.34;100.00;99294.22;5067099;28;20655;-55
2022/12/24 06:55:52;;;;;;;126.50;57.43;;;;;;;3.36;100.00;99285.66;5027733;28;20225;-61
2022/12/24 06:58:20;;;;;;;154.13;66.60;;;;;;;3.53;100.00;99296.69;5028719;28;20231;-61
2022/12/24 07:00:48;;;;;;;209.03;103.80;;;;;;;3.60;100.00;99293.25;5028804;28;20243;-61
2022/12/24 07:03:15;;;;;;;190.70;96.70;;;;;;;3.71;100.00;99293.22;5029196;28;20229;-61
2022/12/24 07:05:42;;;;;;;156.43;77.03;;;;;;;3.75;100.00;99289.75;5028373;28;20758;-61
2022/12/24 07:08:09;;;;;;;155.77;77.07;;;;;;;3.85;100.00;99293.13;5028960;28;20243;-60
2022/12/24 07:10:36;;;;;;;149.73;69.97;;;;;;;3.89;100.00;99289.69;5045777;28;20612;-53
2022/12/24 07:13:03;;;;;;;156.00;76.67;;;;;;;3.97;100.00;99287.91;5068428;28;20228;-60
2022/12/24 07:15:31;;;;;;;218.23;98.93;;;;;;;4.10;100.00;99289.56;5067523;28;20220;-60
2022/12/24 07:17:58;;;;;;;180.67;84.33;;;;;;;4.17;100.00;99291.25;5068123;28;20210;-61
2022/12/24 07:20:25;;;;;;;185.80;83.20;;;;;;;4.27;100.00;99292.03;5068000;28;20203;-61
2022/12/24 07:22:52;;;;;;;116.87;57.77;;;;;;;4.28;100.00;99294.59;5069105;28;20279;-60
2022/12/24 07:25:19;;;;;;;116.70;54.73;;;;;;;4.35;100.00;99296.22;5068092;28;20291;-55
2022/12/24 07:27:46;;;;;;;92.27;49.37;;;;;;;4.41;100.00;99295.31;5068791;28;20589;-54
2022/12/24 07:30:13;;;;;;;106.67;55.87;;;;;;;4.43;100.00;99287.59;5068507;28;20283;-54
2022/12/24 07:32:41;;;;;;;100.23;52.03;;;;;;;4.51;100.00;99293.56;5067427;28;20199;-60
2022/12/24 07:35:09;;;;;;;93.10;48.73;;;;;;;4.57;100.00;99285.78;5067421;28;20577;-61
2022/12/24 07:37:36;;;;;;;83.73;44.57;;;;;;;4.63;100.00;99285.72;5067251;28;20188;-60
2022/12/24 07:40:06;;;;;;;76.17;41.17;;;;;;;4.76;100.00;99292.47;5041404;28;20205;-60
2022/12/24 07:42:33;;;;;;;81.03;42.97;;;;;;;4.89;100.00;99298.34;5042305;28;20288;-61
2022/12/24 07:45:00;;;;;;;79.77;43.27;;;;;;;5.00;100.00;99296.53;5031601;28;20201;-61
2022/12/24 07:47:27;;;;;;;80.07;43.90;;;;;;;5.17;100.00;99304.94;5031358;28;20295;-60
2022/12/24 07:49:56;;;;;;;87.27;43.40;;;;;;;5.34;100.00;99303.03;5039871;28;20202;-60
2022/12/24 07:52:22;;;;;;;93.07;45.17;;;;;;;5.53;100.00;99306.22;5041129;28;20658;-60
2022/12/24 07:54:49;;;;;;;78.83;42.07;;;;;;;5.71;100.00;99307.75;5042072;28;20227;-55
2022/12/24 07:57:16;;;;;;;84.23;40.63;;;;;;;5.94;100.00;99313.47;5049976;28;20187;-54
2022/12/24 07:59:43;;;;;;;79.67;41.77;;;;;;;6.17;100.00;99318.31;5072140;28;20202;-55
2022/12/24 08:02:11;;;;;;;70.03;39.77;;;;;;;6.39;100.00;99319.69;5071975;28;20192;-54
2022/12/24 08:04:38;;;;;;;72.33;39.33;;;;;;;6.57;100.00;99327.13;5071902;28;20191;-54
2022/12/24 08:07:07;;;;;;;67.33;38.90;;;;;;;6.53;100.00;99320.34;5071818;28;20223;-60
2022/12/24 08:09:35;;;;;;;61.83;36.17;;;;;;;6.54;100.00;99337.53;5071964;28;20200;-60
2022/12/24 08:12:03;;;;;;;64.87;36.53;;;;;;;6.68;100.00;99341.59;5071839;28;20786;-60
2022/12/24 08:14:30;;;;;;;67.30;36.67;;;;;;;6.76;100.00;99339.75;5055361;28;20196;-64
2022/12/24 08:16:57;;;;;;;59.80;35.20;;;;;;;6.75;100.00;99343.22;5051715;28;20766;-65
2022/12/24 08:19:25;;;;;;;52.93;32.03;;;;;;;6.81;100.00;99340.53;5051605;28;20196;-56
2022/12/24 08:21:51;;;;;;;56.57;32.17;;;;;;;6.88;100.00;99352.47;5051804;28;20275;-56
2022/12/24 08:24:20;;;;;;;53.33;32.50;;;;;;;7.02;100.00;99357.38;5039874;28;20224;-64
2022/12/24 08:26:47;;;;;;;57.47;32.50;;;;;;;7.05;100.00;99342.69;5031266;28;20225;-64
2022/12/24 08:29:14;;;;;;;55.30;32.40;;;;;;;7.14;100.00;99360.59;5030191;28;20221;-64
2022/12/24 08:31:42;;;;;;;54.93;32.07;;;;;;;7.33;100.00;99352.53;5031179;28;20233;-64
2022/12/24 08:34:10;;;;;;;48.50;30.53;;;;;;;7.41;100.00;99345.50;5030967;28;20225;-64
2022/12/24 08:36:37;;;;;;;56.13;30.03;;;;;;;7.35;100.00;99346.44;5031299;28;20312;-65
2022/12/24 08:39:04;;;;;;;49.60;29.23;;;;;;;7.43;100.00;99338.56;5066985;28;20230;-60
2022/12/24 08:41:33;;;;;;;42.77;26.93;;;;;;;7.50;100.00;99340.16;5072082;28;20730;-61
2022/12/24 08:43:59;;;;;;;44.73;28.40;;;;;;;7.41;100.00;99338.59;5071203;28;20216;-60
2022/12/24 08:46:26;;;;;;;41.90;28.43;;;;;;;7.58;100.00;99339.13;5071648;28;20310;-60
2022/12/24 08:48:53;;;;;;;50.80;27.73;;;;;;;7.72;100.00;99341.44;5071623;28;20734;-60
2022/12/24 08:51:20;;;;;;;48.07;28.63;;;;;;;7.71;100.00;99334.56;5071265;28;20323;-61
2022/12/24 08:53:47;;;;;;;43.27;26.50;;;;;;;7.74;100.00;99337.09;5072053;28;20303;-60
2022/12/24 08:56:14;;;;;;;43.50;27.83;;;;;;;7.70;100.00;99330.28;5034543;28;20225;-60
2022/12/24 08:58:43;;;;;;;51.03;31.37;;;;;;;7.70;100.00;99322.53;5031654;28;20631;-60
2022/12/24 09:01:14;;;;;;;52.17;32.17;;;;;;;7.63;100.00;99324.41;5031436;28;20230;-60
2022/12/24 09:03:41;;;;;;;51.30;31.50;;;;;;;7.49;100.00;99318.63;5031743;28;20235;-60
2022/12/24 09:06:09;;;;;;;65.50;33.27;;;;;;;7.35;100.00;99319.78;5035997;28;20225;-61
2022/12/24 09:08:36;;;;;;;52.17;31.03;;;;;;;7.37;100.00;99315.44;5030421;28;20207;-61
2022/12/24 09:11:07;;;;;;;56.70;32.53;;;;;;;7.37;100.00;99315.44;5033274;28;20225;-61
2022/12/24 09:13:34;;;;;;;66.23;37.23;;;;;;;7.23;100.00;99307.94;5031510;28;20616;-61
2022/12/24 09:16:03;;;;;;;64.67;39.23;;;;;;;7.20;100.00;99318.34;5030241;28;20337;-62
2022/12/24 09:18:30;;;;;;;61.77;37.90;;;;;;;7.37;100.00;99315.44;5044878;28;20200;-61
2022/12/24 09:21:01;;;;;;;60.43;37.07;;;;;;;7.46;100.00;99316.09;5050582;28;20200;-61
2022/12/24 09:23:28;;;;;;;56.97;33.70;;;;;;;7.55;100.00;99308.22;5062090;28;20582;-61
2022/12/24 09:25:55;;;;;;;59.03;33.20;;;;;;;7.66;100.00;99305.41;5051227;28;20219;-55
2022/12/24 09:28:22;;;;;;;47.63;30.33;;;;;;;7.78;100.00;99312.06;5050355;28;20229;-55
2022/12/24 09:30:57;;;;;;;50.63;30.33;;;;;;;7.89;100.00;99304.94;5050229;28;20201;-55
2022/12/24 09:33:25;;;;;;;56.03;31.90;;;;;;;8.03;100.00;99306.31;5050337;28;20208;-55
2022/12/24 09:35:53;;;;;;;47.77;28.80;;;;;;;8.12;100.00;99296.69;5050272;28;20250;-54
2022/12/24 09:38:20;;;;;;;46.87;27.00;;;;;;;8.24;100.00;99293.81;5050109;28;20239;-54
2022/12/24 09:40:47;;;;;;;43.83;25.63;;;;;;;8.41;100.00;99291.72;5049997;28;20189;-56
2022/12/24 09:43:17;;;;;;;34.27;22.67;;;;;;;8.42;100.00;99285.66;5051097;28;20557;-61
2022/12/24 09:45:50;;;;;;;32.83;22.13;;;;;;;8.50;100.00;99286.31;5050869;28;20192;-61
2022/12/24 09:48:22;;;;;;;30.97;21.83;;;;;;;8.70;100.00;99278.91;5051210;28;20197;-61
2022/12/24 09:50:56;;;;;;;34.00;22.73;;;;;;;8.80;100.00;99278.69;5051236;28;20723;-61
2022/12/24 09:53:29;;;;;;;38.37;22.50;;;;;;;8.94;100.00;99276.56;5051049;28;20209;-62
2022/12/24 09:55:59;;;;;;;35.73;22.90;;;;;;;9.06;100.00;99273.66;5051020;28;20196;-62
2022/12/24 09:58:31;;;;;;;37.83;23.70;;;;;;;9.14;100.00;99266.56;5051229;28;20196;-60
2022/12/24 10:00:58;;;;;;;40.47;25.03;;;;;;;9.31;100.00;99263.50;5050209;28;20196;-60
2022/12/24 10:03:25;;;;;;;47.80;26.03;;;;;;;9.49;100.00;99270.75;5049701;28;20200;-55
2022/12/24 10:06:04;;;;;;;37.63;24.47;;;;;;;9.62;99.89;99263.47;5049489;28;20192;-60
2022/12/24 10:08:41;;;;;;;36.63;24.47;;;;;;;9.75;99.13;99272.59;5050307;28;20196;-55
2022/12/24 10:11:19;;;;;;;35.43;23.13;;;;;;;9.81;97.83;99270.69;5049620;28;20215;-55
2022/12/24 10:14:01;;;;;;;33.77;21.77;;;;;;;9.91;97.10;99263.50;5049430;28;20189;-54
2022/12/24 10:16:37;;;;;;;31.53;21.27;;;;;;;9.95;96.27;99256.44;5049464;28;20239;-54
2022/12/24 10:19:14;;;;;;;36.60;22.23;;;;;;;10.00;96.18;99262.34;5049882;28;20583;-55
2022/12/24 10:21:56;;;;;;;33.53;23.03;;;;;;;10.08;95.86;99257.78;5049362;28;20195;-55
2022/12/24 10:24:28;;;;;;;34.40;23.70;;;;;;;10.19;94.98;99247.94;5049805;28;20291;-61
2022/12/24 10:26:59;;;;;;;37.03;23.03;;;;;;;10.19;95.22;99233.25;5049800;28;20200;-55
2022/12/24 10:29:29;;;;;;;36.37;23.47;;;;;;;10.34;94.39;99246.63;5049817;28;20585;-61
2022/12/24 10:32:05;;;;;;;37.03;23.97;;;;;;;10.31;94.52;99239.78;5049729;28;20714;-54
2022/12/24 10:34:37;;;;;;;44.47;23.33;;;;;;;10.28;94.30;99236.44;5049432;28;20686;-56
2022/12/24 10:37:06;;;;;;;46.03;25.13;;;;;;;10.27;94.42;99240.75;5049992;28;20203;-58
2022/12/24 10:39:33;;;;;;;39.37;25.67;;;;;;;10.30;94.48;99240.69;5056567;28;20224;-53
2022/12/24 10:42:01;;;;;;;36.13;25.63;;;;;;;10.25;94.44;99236.53;5065497;28;20192;-54
2022/12/24 10:44:31;;;;;;;41.37;25.00;;;;;;;10.19;93.88;99237.56;5067364;28;20202;-53
2022/12/24 10:46:58;;;;;;;34.87;22.90;;;;;;;10.15;94.36;99241.16;5068676;28;20774;-51
2022/12/24 10:49:32;;;;;;;44.67;26.77;;;;;;;10.22;94.55;99231.44;5068997;28;20195;-52
2022/12/24 10:52:03;;;;;;;39.40;24.97;;;;;;;10.32;93.93;99238.03;5057863;28;20326;-53
2022/12/24 10:54:37;;;;;;;49.60;30.67;;;;;;;10.34;94.20;99239.69;5067894;28;20303;-59
2022/12/24 10:57:06;;;;;;;34.73;24.93;;;;;;;10.21;94.43;99235.78;5053128;28;20315;-50
2022/12/24 10:59:49;;;;;;;47.37;27.03;;;;;;;10.25;94.63;99239.13;5061944;28;20288;-51
2022/12/24 11:02:27;;;;;;;44.20;26.80;;;;;;;10.39;94.86;99229.16;5063815;28;20785;-52
2022/12/24 11:04:54;;;;;;;45.73;29.20;;;;;;;10.53;93.90;99230.41;5055432;28;20691;-52
2022/12/24 11:07:23;;;;;;;54.43;32.80;;;;;;;10.62;92.90;99223.19;5047576;28;20193;-50
2022/12/24 11:09:57;;;;;;;64.53;33.50;;;;;;;10.73;92.00;99236.66;5050157;28;20203;-50
2022/12/24 11:12:27;;;;;;;53.67;32.97;;;;;;;10.85;92.25;99239.69;5063601;28;20219;-50
2022/12/24 11:15:01;;;;;;;51.47;30.20;;;;;;;10.96;90.94;99241.91;5069637;28;20202;-51
2022/12/24 11:17:28;;;;;;;46.00;29.20;;;;;;;10.95;90.60;99236.81;5071905;28;20322;-51
2022/12/24 11:19:55;;;;;;;49.37;28.73;;;;;;;10.98;90.22;99234.06;5071785;28;20195;-52
2022/12/24 11:22:25;;;;;;;55.67;29.27;;;;;;;10.98;90.78;99226.28;5071892;28;20242;-61
2022/12/24 11:25:02;;;;;;;182.67;84.80;;;;;;;11.02;91.12;99231.34;5071335;28;20184;-60
2022/12/24 11:27:32;;;;;;;109.57;56.23;;;;;;;11.03;91.92;99225.25;5070739;28;20195;-60
2022/12/24 11:30:24;;;;;;;65.67;39.67;;;;;;;11.03;91.59;99227.00;5071608;28;20580;-52
2022/12/24 11:33:07;;;;;;;58.17;32.13;;;;;;;11.00;91.40;99221.88;5069712;28;20219;-52